sensor_id;sensor_type;location;lat;lon;timestamp;P1;durP1;ratioP1;P2;durP2;ratioP2
75220;SDS011;63802;53.232;6.570;2023-05-10T00:01:55;27.52;;;9.57;;
75220;SDS011;63802;53.232;6.570;2023-05-10T00:04:21;19.77;;;9.95;;
75220;SDS011;63802;53.232;6.570;2023-05-10T00:06:46;19.13;;;9.13;;
75220;SDS011;63802;53.232;6.570;2023-05-10T00:09:12;18.55;;;8.77;;
75220;SDS011;63802;53.232;6.570;2023-05-10T00:11:37;18.90;;;8.57;;
75220;SDS011;63802;53.232;6.570;2023-05-10T00:14:03;19.35;;;8.75;;
75220;SDS011;63802;53.232;6.570;2023-05-10T00:16:28;20.13;;;8.85;;
75220;SDS011;63802;53.232;6.570;2023-05-10T00:18:53;18.83;;;8.70;;
75220;SDS011;63802;53.232;6.570;2023-05-10T00:21:19;20.50;;;8.43;;
75220;SDS011;63802;53.232;6.570;2023-05-10T00:23:44;17.38;;;8.07;;
75220;SDS011;63802;53.232;6.570;2023-05-10T00:26:10;19.45;;;8.48;;
75220;SDS011;63802;53.232;6.570;2023-05-10T00:28:36;19.80;;;8.43;;
75220;SDS011;63802;53.232;6.570;2023-05-10T00:31:04;19.00;;;7.72;;
75220;SDS011;63802;53.232;6.570;2023-05-10T00:33:30;18.33;;;8.07;;
75220;SDS011;63802;53.232;6.570;2023-05-10T00:35:55;19.92;;;7.88;;
75220;SDS011;63802;53.232;6.570;2023-05-10T00:38:21;16.77;;;7.20;;
75220;SDS011;63802;53.232;6.570;2023-05-10T00:40:46;16.73;;;7.13;;
75220;SDS011;63802;53.232;6.570;2023-05-10T00:43:12;17.35;;;7.70;;
75220;SDS011;63802;53.232;6.570;2023-05-10T00:45:37;15.63;;;6.68;;
75220;SDS011;63802;53.232;6.570;2023-05-10T00:48:05;13.68;;;6.30;;
75220;SDS011;63802;53.232;6.570;2023-05-10T00:50:30;14.07;;;6.35;;
75220;SDS011;63802;53.232;6.570;2023-05-10T00:52:58;13.82;;;6.32;;
75220;SDS011;63802;53.232;6.570;2023-05-10T00:55:25;16.73;;;7.35;;
75220;SDS011;63802;53.232;6.570;2023-05-10T00:57:51;14.70;;;7.18;;
75220;SDS011;63802;53.232;6.570;2023-05-10T01:00:18;14.50;;;6.43;;
75220;SDS011;63802;53.232;6.570;2023-05-10T01:02:44;24.27;;;7.00;;
75220;SDS011;63802;53.232;6.570;2023-05-10T01:05:10;17.30;;;6.28;;
75220;SDS011;63802;53.232;6.570;2023-05-10T01:07:36;12.68;;;6.18;;
75220;SDS011;63802;53.232;6.570;2023-05-10T01:10:02;12.13;;;6.15;;
75220;SDS011;63802;53.232;6.570;2023-05-10T01:12:28;13.82;;;6.50;;
75220;SDS011;63802;53.232;6.570;2023-05-10T01:14:53;14.15;;;7.00;;
75220;SDS011;63802;53.232;6.570;2023-05-10T01:17:20;14.10;;;6.88;;
75220;SDS011;63802;53.232;6.570;2023-05-10T01:19:47;14.70;;;6.47;;
75220;SDS011;63802;53.232;6.570;2023-05-10T01:36:57;16.58;;;7.30;;
75220;SDS011;63802;53.232;6.570;2023-05-10T01:44:14;16.02;;;6.75;;
75220;SDS011;63802;53.232;6.570;2023-05-10T01:46:47;14.25;;;6.55;;
75220;SDS011;63802;53.232;6.570;2023-05-10T01:49:21;14.02;;;6.20;;
75220;SDS011;63802;53.232;6.570;2023-05-10T01:51:52;18.50;;;7.75;;
75220;SDS011;63802;53.232;6.570;2023-05-10T01:54:20;16.50;;;7.47;;
75220;SDS011;63802;53.232;6.570;2023-05-10T01:56:50;16.55;;;7.53;;
75220;SDS011;63802;53.232;6.570;2023-05-10T01:59:20;17.35;;;8.15;;
75220;SDS011;63802;53.232;6.570;2023-05-10T02:01:47;16.80;;;6.70;;
75220;SDS011;63802;53.232;6.570;2023-05-10T02:04:15;17.70;;;7.93;;
75220;SDS011;63802;53.232;6.570;2023-05-10T02:06:42;16.00;;;7.50;;
75220;SDS011;63802;53.232;6.570;2023-05-10T02:09:10;17.35;;;8.00;;
75220;SDS011;63802;53.232;6.570;2023-05-10T02:11:41;17.05;;;7.53;;
75220;SDS011;63802;53.232;6.570;2023-05-10T02:14:09;15.80;;;7.55;;
75220;SDS011;63802;53.232;6.570;2023-05-10T02:16:36;13.32;;;6.68;;
75220;SDS011;63802;53.232;6.570;2023-05-10T02:19:04;13.20;;;6.65;;
75220;SDS011;63802;53.232;6.570;2023-05-10T02:21:31;13.27;;;7.20;;
75220;SDS011;63802;53.232;6.570;2023-05-10T02:23:58;16.65;;;6.93;;
75220;SDS011;63802;53.232;6.570;2023-05-10T02:26:26;14.82;;;6.72;;
75220;SDS011;63802;53.232;6.570;2023-05-10T02:28:53;14.32;;;6.90;;
75220;SDS011;63802;53.232;6.570;2023-05-10T02:31:20;13.10;;;7.18;;
75220;SDS011;63802;53.232;6.570;2023-05-10T02:33:47;15.63;;;7.07;;
75220;SDS011;63802;53.232;6.570;2023-05-10T02:36:13;17.10;;;7.47;;
75220;SDS011;63802;53.232;6.570;2023-05-10T02:38:40;16.30;;;7.97;;
75220;SDS011;63802;53.232;6.570;2023-05-10T02:41:06;13.45;;;7.07;;
75220;SDS011;63802;53.232;6.570;2023-05-10T02:43:33;15.82;;;7.53;;
75220;SDS011;63802;53.232;6.570;2023-05-10T02:46:00;17.23;;;8.13;;
75220;SDS011;63802;53.232;6.570;2023-05-10T02:48:27;16.38;;;7.53;;
75220;SDS011;63802;53.232;6.570;2023-05-10T02:50:53;18.90;;;8.13;;
75220;SDS011;63802;53.232;6.570;2023-05-10T02:53:22;21.15;;;8.43;;
75220;SDS011;63802;53.232;6.570;2023-05-10T02:55:53;18.77;;;8.25;;
75220;SDS011;63802;53.232;6.570;2023-05-10T02:58:23;18.65;;;8.02;;
75220;SDS011;63802;53.232;6.570;2023-05-10T03:00:50;20.38;;;8.85;;
75220;SDS011;63802;53.232;6.570;2023-05-10T03:03:15;23.05;;;8.98;;
75220;SDS011;63802;53.232;6.570;2023-05-10T03:05:41;19.08;;;8.48;;
75220;SDS011;63802;53.232;6.570;2023-05-10T03:08:06;22.75;;;9.55;;
75220;SDS011;63802;53.232;6.570;2023-05-10T03:10:32;21.65;;;8.88;;
75220;SDS011;63802;53.232;6.570;2023-05-10T03:15:47;20.58;;;8.75;;
75220;SDS011;63802;53.232;6.570;2023-05-10T03:18:25;27.50;;;9.93;;
75220;SDS011;63802;53.232;6.570;2023-05-10T03:20:57;20.85;;;8.85;;
75220;SDS011;63802;53.232;6.570;2023-05-10T03:23:29;21.60;;;9.77;;
75220;SDS011;63802;53.232;6.570;2023-05-10T03:25:59;25.02;;;9.25;;
75220;SDS011;63802;53.232;6.570;2023-05-10T03:28:25;25.85;;;9.32;;
75220;SDS011;63802;53.232;6.570;2023-05-10T03:30:52;28.40;;;10.95;;
75220;SDS011;63802;53.232;6.570;2023-05-10T03:33:19;26.13;;;11.00;;
75220;SDS011;63802;53.232;6.570;2023-05-10T03:35:45;25.20;;;10.30;;
75220;SDS011;63802;53.232;6.570;2023-05-10T03:38:14;27.25;;;11.68;;
75220;SDS011;63802;53.232;6.570;2023-05-10T03:40:40;33.78;;;11.48;;
75220;SDS011;63802;53.232;6.570;2023-05-10T03:43:05;27.95;;;10.00;;
75220;SDS011;63802;53.232;6.570;2023-05-10T03:45:31;27.17;;;10.50;;
75220;SDS011;63802;53.232;6.570;2023-05-10T03:47:57;27.00;;;10.88;;
75220;SDS011;63802;53.232;6.570;2023-05-10T03:50:23;25.05;;;10.15;;
75220;SDS011;63802;53.232;6.570;2023-05-10T03:52:48;26.25;;;10.50;;
75220;SDS011;63802;53.232;6.570;2023-05-10T03:55:14;30.02;;;11.68;;
75220;SDS011;63802;53.232;6.570;2023-05-10T03:57:40;29.13;;;10.93;;
75220;SDS011;63802;53.232;6.570;2023-05-10T04:00:05;30.95;;;11.65;;
75220;SDS011;63802;53.232;6.570;2023-05-10T04:02:32;27.75;;;9.73;;
75220;SDS011;63802;53.232;6.570;2023-05-10T04:04:57;25.73;;;8.77;;
75220;SDS011;63802;53.232;6.570;2023-05-10T04:07:23;21.02;;;8.70;;
75220;SDS011;63802;53.232;6.570;2023-05-10T04:09:49;16.75;;;7.90;;
75220;SDS011;63802;53.232;6.570;2023-05-10T04:12:14;21.85;;;8.90;;
75220;SDS011;63802;53.232;6.570;2023-05-10T04:14:39;19.25;;;8.45;;
75220;SDS011;63802;53.232;6.570;2023-05-10T04:17:05;17.95;;;7.47;;
75220;SDS011;63802;53.232;6.570;2023-05-10T04:19:31;15.10;;;6.93;;
75220;SDS011;63802;53.232;6.570;2023-05-10T04:21:57;19.52;;;7.40;;
75220;SDS011;63802;53.232;6.570;2023-05-10T04:24:24;14.70;;;6.70;;
75220;SDS011;63802;53.232;6.570;2023-05-10T04:26:49;14.27;;;6.38;;
75220;SDS011;63802;53.232;6.570;2023-05-10T04:29:15;15.27;;;6.93;;
75220;SDS011;63802;53.232;6.570;2023-05-10T04:31:40;15.18;;;6.50;;
75220;SDS011;63802;53.232;6.570;2023-05-10T04:34:06;13.70;;;6.55;;
75220;SDS011;63802;53.232;6.570;2023-05-10T04:36:31;16.48;;;6.38;;
75220;SDS011;63802;53.232;6.570;2023-05-10T04:39:02;13.85;;;6.20;;
75220;SDS011;63802;53.232;6.570;2023-05-10T04:41:28;15.98;;;6.72;;
75220;SDS011;63802;53.232;6.570;2023-05-10T04:43:54;16.30;;;6.90;;
75220;SDS011;63802;53.232;6.570;2023-05-10T04:46:20;13.38;;;6.38;;
75220;SDS011;63802;53.232;6.570;2023-05-10T04:48:45;17.02;;;7.35;;
75220;SDS011;63802;53.232;6.570;2023-05-10T04:51:11;12.70;;;6.28;;
75220;SDS011;63802;53.232;6.570;2023-05-10T04:53:37;12.90;;;6.00;;
75220;SDS011;63802;53.232;6.570;2023-05-10T04:56:03;12.10;;;5.80;;
75220;SDS011;63802;53.232;6.570;2023-05-10T04:58:28;12.93;;;6.75;;
75220;SDS011;63802;53.232;6.570;2023-05-10T05:00:55;11.90;;;6.80;;
75220;SDS011;63802;53.232;6.570;2023-05-10T05:03:20;14.50;;;6.57;;
75220;SDS011;63802;53.232;6.570;2023-05-10T05:05:45;13.68;;;6.38;;
75220;SDS011;63802;53.232;6.570;2023-05-10T05:08:11;13.93;;;6.80;;
75220;SDS011;63802;53.232;6.570;2023-05-10T05:10:36;13.07;;;6.55;;
75220;SDS011;63802;53.232;6.570;2023-05-10T05:13:01;12.68;;;6.38;;
75220;SDS011;63802;53.232;6.570;2023-05-10T05:15:27;12.50;;;6.00;;
75220;SDS011;63802;53.232;6.570;2023-05-10T05:17:52;12.82;;;6.22;;
75220;SDS011;63802;53.232;6.570;2023-05-10T05:20:18;13.68;;;6.55;;
75220;SDS011;63802;53.232;6.570;2023-05-10T05:22:44;11.70;;;5.88;;
75220;SDS011;63802;53.232;6.570;2023-05-10T05:25:09;13.10;;;5.82;;
75220;SDS011;63802;53.232;6.570;2023-05-10T05:27:36;12.27;;;6.35;;
75220;SDS011;63802;53.232;6.570;2023-05-10T05:30:02;14.93;;;6.65;;
75220;SDS011;63802;53.232;6.570;2023-05-10T05:32:28;10.85;;;6.03;;
75220;SDS011;63802;53.232;6.570;2023-05-10T05:34:53;14.05;;;6.25;;
75220;SDS011;63802;53.232;6.570;2023-05-10T05:37:19;15.15;;;6.60;;
75220;SDS011;63802;53.232;6.570;2023-05-10T05:39:46;14.48;;;6.45;;
75220;SDS011;63802;53.232;6.570;2023-05-10T05:42:12;15.48;;;6.60;;
75220;SDS011;63802;53.232;6.570;2023-05-10T05:44:38;10.73;;;5.53;;
75220;SDS011;63802;53.232;6.570;2023-05-10T05:47:04;11.02;;;5.63;;
75220;SDS011;63802;53.232;6.570;2023-05-10T05:49:30;10.00;;;5.13;;
75220;SDS011;63802;53.232;6.570;2023-05-10T05:51:59;12.60;;;5.25;;
75220;SDS011;63802;53.232;6.570;2023-05-10T05:54:29;10.88;;;5.13;;
75220;SDS011;63802;53.232;6.570;2023-05-10T05:56:55;10.70;;;4.65;;
75220;SDS011;63802;53.232;6.570;2023-05-10T05:59:21;8.77;;;4.47;;
75220;SDS011;63802;53.232;6.570;2023-05-10T06:01:47;7.28;;;3.85;;
75220;SDS011;63802;53.232;6.570;2023-05-10T06:04:12;7.82;;;3.75;;
75220;SDS011;63802;53.232;6.570;2023-05-10T06:06:38;7.95;;;3.65;;
75220;SDS011;63802;53.232;6.570;2023-05-10T06:09:03;7.78;;;3.38;;
75220;SDS011;63802;53.232;6.570;2023-05-10T06:11:29;6.07;;;3.50;;
75220;SDS011;63802;53.232;6.570;2023-05-10T06:13:56;8.10;;;3.00;;
75220;SDS011;63802;53.232;6.570;2023-05-10T06:16:22;5.53;;;2.80;;
75220;SDS011;63802;53.232;6.570;2023-05-10T06:18:48;3.58;;;2.00;;
75220;SDS011;63802;53.232;6.570;2023-05-10T06:21:14;3.17;;;1.90;;
75220;SDS011;63802;53.232;6.570;2023-05-10T06:23:39;4.05;;;2.20;;
75220;SDS011;63802;53.232;6.570;2023-05-10T06:26:05;3.33;;;1.90;;
75220;SDS011;63802;53.232;6.570;2023-05-10T06:28:31;3.65;;;2.22;;
75220;SDS011;63802;53.232;6.570;2023-05-10T06:30:58;4.80;;;2.65;;
75220;SDS011;63802;53.232;6.570;2023-05-10T06:33:24;3.95;;;2.47;;
75220;SDS011;63802;53.232;6.570;2023-05-10T06:35:49;4.30;;;2.53;;
75220;SDS011;63802;53.232;6.570;2023-05-10T06:38:15;4.65;;;3.25;;
75220;SDS011;63802;53.232;6.570;2023-05-10T06:40:41;8.60;;;4.45;;
75220;SDS011;63802;53.232;6.570;2023-05-10T06:43:08;15.43;;;6.85;;
75220;SDS011;63802;53.232;6.570;2023-05-10T06:45:33;15.95;;;6.97;;
75220;SDS011;63802;53.232;6.570;2023-05-10T06:47:59;14.38;;;7.35;;
75220;SDS011;63802;53.232;6.570;2023-05-10T06:50:24;15.40;;;7.45;;
75220;SDS011;63802;53.232;6.570;2023-05-10T06:52:50;16.52;;;7.43;;
75220;SDS011;63802;53.232;6.570;2023-05-10T06:55:15;17.75;;;8.02;;
75220;SDS011;63802;53.232;6.570;2023-05-10T06:57:41;18.02;;;8.90;;
75220;SDS011;63802;53.232;6.570;2023-05-10T07:00:06;18.48;;;8.38;;
75220;SDS011;63802;53.232;6.570;2023-05-10T07:02:35;18.33;;;9.00;;
75220;SDS011;63802;53.232;6.570;2023-05-10T07:05:01;18.60;;;8.60;;
75220;SDS011;63802;53.232;6.570;2023-05-10T07:07:27;18.63;;;8.18;;
75220;SDS011;63802;53.232;6.570;2023-05-10T07:09:52;17.75;;;8.68;;
75220;SDS011;63802;53.232;6.570;2023-05-10T07:12:18;15.05;;;7.47;;
75220;SDS011;63802;53.232;6.570;2023-05-10T07:14:43;15.15;;;7.10;;
75220;SDS011;63802;53.232;6.570;2023-05-10T07:17:09;14.10;;;6.25;;
75220;SDS011;63802;53.232;6.570;2023-05-10T07:19:36;14.70;;;6.38;;
75220;SDS011;63802;53.232;6.570;2023-05-10T07:22:02;12.10;;;6.50;;
75220;SDS011;63802;53.232;6.570;2023-05-10T07:24:28;13.40;;;6.65;;
75220;SDS011;63802;53.232;6.570;2023-05-10T07:26:53;15.52;;;6.85;;
75220;SDS011;63802;53.232;6.570;2023-05-10T07:29:18;13.05;;;6.68;;
75220;SDS011;63802;53.232;6.570;2023-05-10T07:31:44;9.77;;;5.28;;
75220;SDS011;63802;53.232;6.570;2023-05-10T07:34:09;8.23;;;4.30;;
75220;SDS011;63802;53.232;6.570;2023-05-10T07:36:35;8.27;;;4.55;;
75220;SDS011;63802;53.232;6.570;2023-05-10T07:39:00;7.05;;;3.50;;
75220;SDS011;63802;53.232;6.570;2023-05-10T07:41:26;8.52;;;3.92;;
75220;SDS011;63802;53.232;6.570;2023-05-10T07:43:53;7.60;;;3.60;;
75220;SDS011;63802;53.232;6.570;2023-05-10T07:46:19;8.05;;;4.03;;
75220;SDS011;63802;53.232;6.570;2023-05-10T07:48:45;6.78;;;3.85;;
75220;SDS011;63802;53.232;6.570;2023-05-10T07:51:10;5.57;;;3.45;;
75220;SDS011;63802;53.232;6.570;2023-05-10T07:53:37;4.35;;;2.90;;
75220;SDS011;63802;53.232;6.570;2023-05-10T07:58:54;6.55;;;2.95;;
75220;SDS011;63802;53.232;6.570;2023-05-10T08:01:20;6.57;;;3.28;;
75220;SDS011;63802;53.232;6.570;2023-05-10T08:03:46;6.95;;;3.50;;
75220;SDS011;63802;53.232;6.570;2023-05-10T08:06:13;6.90;;;3.70;;
75220;SDS011;63802;53.232;6.570;2023-05-10T08:08:40;6.05;;;3.60;;
75220;SDS011;63802;53.232;6.570;2023-05-10T08:11:05;5.05;;;3.45;;
75220;SDS011;63802;53.232;6.570;2023-05-10T08:13:30;6.25;;;4.13;;
75220;SDS011;63802;53.232;6.570;2023-05-10T08:15:56;5.95;;;3.90;;
75220;SDS011;63802;53.232;6.570;2023-05-10T08:18:21;7.65;;;4.45;;
75220;SDS011;63802;53.232;6.570;2023-05-10T08:20:47;8.57;;;4.60;;
75220;SDS011;63802;53.232;6.570;2023-05-10T08:23:12;10.90;;;4.53;;
75220;SDS011;63802;53.232;6.570;2023-05-10T08:25:38;6.35;;;4.18;;
75220;SDS011;63802;53.232;6.570;2023-05-10T08:28:03;6.65;;;3.85;;
75220;SDS011;63802;53.232;6.570;2023-05-10T08:30:29;7.43;;;4.13;;
75220;SDS011;63802;53.232;6.570;2023-05-10T08:32:55;6.70;;;3.92;;
75220;SDS011;63802;53.232;6.570;2023-05-10T08:35:20;6.85;;;4.10;;
75220;SDS011;63802;53.232;6.570;2023-05-10T08:37:45;8.02;;;4.50;;
75220;SDS011;63802;53.232;6.570;2023-05-10T08:40:11;10.52;;;5.00;;
75220;SDS011;63802;53.232;6.570;2023-05-10T08:42:38;11.05;;;5.85;;
75220;SDS011;63802;53.232;6.570;2023-05-10T08:45:08;9.82;;;4.80;;
75220;SDS011;63802;53.232;6.570;2023-05-10T08:47:36;8.85;;;4.78;;
75220;SDS011;63802;53.232;6.570;2023-05-10T08:50:03;9.20;;;4.40;;
75220;SDS011;63802;53.232;6.570;2023-05-10T08:52:28;7.80;;;4.10;;
75220;SDS011;63802;53.232;6.570;2023-05-10T08:54:55;7.50;;;4.10;;
75220;SDS011;63802;53.232;6.570;2023-05-10T08:57:20;8.70;;;3.67;;
75220;SDS011;63802;53.232;6.570;2023-05-10T08:59:46;8.90;;;3.97;;
75220;SDS011;63802;53.232;6.570;2023-05-10T09:02:11;9.52;;;3.88;;
75220;SDS011;63802;53.232;6.570;2023-05-10T09:04:38;5.32;;;3.40;;
75220;SDS011;63802;53.232;6.570;2023-05-10T09:07:04;6.57;;;3.38;;
75220;SDS011;63802;53.232;6.570;2023-05-10T09:09:31;6.68;;;3.80;;
75220;SDS011;63802;53.232;6.570;2023-05-10T09:11:56;8.82;;;3.80;;
75220;SDS011;63802;53.232;6.570;2023-05-10T09:14:23;8.02;;;4.10;;
75220;SDS011;63802;53.232;6.570;2023-05-10T09:16:49;6.50;;;4.05;;
75220;SDS011;63802;53.232;6.570;2023-05-10T09:19:15;8.52;;;3.85;;
75220;SDS011;63802;53.232;6.570;2023-05-10T09:21:41;7.30;;;3.75;;
75220;SDS011;63802;53.232;6.570;2023-05-10T09:24:07;8.27;;;4.03;;
75220;SDS011;63802;53.232;6.570;2023-05-10T09:26:33;6.88;;;3.72;;
75220;SDS011;63802;53.232;6.570;2023-05-10T09:29:00;6.20;;;3.60;;
75220;SDS011;63802;53.232;6.570;2023-05-10T09:34:28;7.32;;;3.97;;
75220;SDS011;63802;53.232;6.570;2023-05-10T09:36:55;6.10;;;3.58;;
75220;SDS011;63802;53.232;6.570;2023-05-10T09:39:33;9.37;;;3.57;;
75220;SDS011;63802;53.232;6.570;2023-05-10T09:42:01;10.68;;;4.28;;
75220;SDS011;63802;53.232;6.570;2023-05-10T09:44:29;7.38;;;4.07;;
75220;SDS011;63802;53.232;6.570;2023-05-10T09:46:54;6.78;;;3.13;;
75220;SDS011;63802;53.232;6.570;2023-05-10T09:49:20;5.88;;;3.47;;
75220;SDS011;63802;53.232;6.570;2023-05-10T09:51:47;6.55;;;3.38;;
75220;SDS011;63802;53.232;6.570;2023-05-10T09:54:13;6.70;;;3.47;;
75220;SDS011;63802;53.232;6.570;2023-05-10T09:56:41;5.63;;;3.42;;
75220;SDS011;63802;53.232;6.570;2023-05-10T09:59:09;5.40;;;2.85;;
75220;SDS011;63802;53.232;6.570;2023-05-10T10:01:36;5.40;;;3.13;;
75220;SDS011;63802;53.232;6.570;2023-05-10T10:04:05;7.05;;;3.40;;
75220;SDS011;63802;53.232;6.570;2023-05-10T10:06:38;6.35;;;3.22;;
75220;SDS011;63802;53.232;6.570;2023-05-10T10:09:08;4.28;;;2.80;;
75220;SDS011;63802;53.232;6.570;2023-05-10T10:11:35;6.82;;;2.67;;
75220;SDS011;63802;53.232;6.570;2023-05-10T10:14:06;5.35;;;3.00;;
75220;SDS011;63802;53.232;6.570;2023-05-10T10:16:32;4.63;;;2.72;;
75220;SDS011;63802;53.232;6.570;2023-05-10T10:18:58;6.93;;;3.03;;
75220;SDS011;63802;53.232;6.570;2023-05-10T10:21:23;4.82;;;2.80;;
75220;SDS011;63802;53.232;6.570;2023-05-10T10:23:49;6.53;;;2.90;;
75220;SDS011;63802;53.232;6.570;2023-05-10T10:26:16;5.50;;;2.80;;
75220;SDS011;63802;53.232;6.570;2023-05-10T10:31:39;3.15;;;2.03;;
75220;SDS011;63802;53.232;6.570;2023-05-10T10:34:10;4.35;;;2.40;;
75220;SDS011;63802;53.232;6.570;2023-05-10T10:36:45;2.72;;;1.73;;
75220;SDS011;63802;53.232;6.570;2023-05-10T10:39:12;5.63;;;2.15;;
75220;SDS011;63802;53.232;6.570;2023-05-10T10:41:39;3.17;;;2.03;;
75220;SDS011;63802;53.232;6.570;2023-05-10T11:00:31;6.82;;;3.25;;
75220;SDS011;63802;53.232;6.570;2023-05-10T11:03:04;7.25;;;3.38;;
75220;SDS011;63802;53.232;6.570;2023-05-10T11:08:12;6.32;;;3.58;;
75220;SDS011;63802;53.232;6.570;2023-05-10T11:11:02;6.60;;;3.80;;
75220;SDS011;63802;53.232;6.570;2023-05-10T11:13:37;9.15;;;4.18;;
75220;SDS011;63802;53.232;6.570;2023-05-10T11:16:16;9.57;;;4.43;;
75220;SDS011;63802;53.232;6.570;2023-05-10T11:21:19;11.73;;;4.90;;
75220;SDS011;63802;53.232;6.570;2023-05-10T11:26:14;8.43;;;4.57;;
75220;SDS011;63802;53.232;6.570;2023-05-10T11:28:43;9.93;;;5.47;;
75220;SDS011;63802;53.232;6.570;2023-05-10T11:31:18;12.30;;;5.13;;
75220;SDS011;63802;53.232;6.570;2023-05-10T11:33:45;10.32;;;5.40;;
75220;SDS011;63802;53.232;6.570;2023-05-10T11:36:16;11.63;;;5.03;;
75220;SDS011;63802;53.232;6.570;2023-05-10T11:38:43;9.95;;;4.97;;
75220;SDS011;63802;53.232;6.570;2023-05-10T11:41:09;9.63;;;4.55;;
75220;SDS011;63802;53.232;6.570;2023-05-10T11:43:36;10.38;;;5.30;;
75220;SDS011;63802;53.232;6.570;2023-05-10T11:46:10;13.05;;;5.70;;
75220;SDS011;63802;53.232;6.570;2023-05-10T11:48:41;8.48;;;4.68;;
75220;SDS011;63802;53.232;6.570;2023-05-10T11:51:08;11.55;;;5.30;;
75220;SDS011;63802;53.232;6.570;2023-05-10T11:53:35;10.45;;;4.43;;
75220;SDS011;63802;53.232;6.570;2023-05-10T11:56:06;10.10;;;4.60;;
75220;SDS011;63802;53.232;6.570;2023-05-10T11:58:33;12.23;;;4.85;;
75220;SDS011;63802;53.232;6.570;2023-05-10T12:00:59;11.05;;;5.32;;
75220;SDS011;63802;53.232;6.570;2023-05-10T12:03:26;9.07;;;5.07;;
75220;SDS011;63802;53.232;6.570;2023-05-10T12:05:53;10.70;;;5.63;;
75220;SDS011;63802;53.232;6.570;2023-05-10T12:08:21;11.18;;;5.57;;
75220;SDS011;63802;53.232;6.570;2023-05-10T12:10:48;9.10;;;4.45;;
75220;SDS011;63802;53.232;6.570;2023-05-10T12:13:14;14.52;;;5.28;;
75220;SDS011;63802;53.232;6.570;2023-05-10T12:15:40;10.75;;;5.68;;
75220;SDS011;63802;53.232;6.570;2023-05-10T12:18:13;14.93;;;6.32;;
75220;SDS011;63802;53.232;6.570;2023-05-10T12:20:40;14.20;;;5.82;;
75220;SDS011;63802;53.232;6.570;2023-05-10T12:23:07;13.80;;;6.32;;
75220;SDS011;63802;53.232;6.570;2023-05-10T12:25:34;15.18;;;6.97;;
75220;SDS011;63802;53.232;6.570;2023-05-10T12:28:04;13.00;;;6.05;;
75220;SDS011;63802;53.232;6.570;2023-05-10T12:30:34;10.70;;;5.80;;
75220;SDS011;63802;53.232;6.570;2023-05-10T12:33:01;16.17;;;7.03;;
75220;SDS011;63802;53.232;6.570;2023-05-10T12:35:50;16.65;;;6.72;;
75220;SDS011;63802;53.232;6.570;2023-05-10T12:38:34;16.60;;;7.38;;
75220;SDS011;63802;53.232;6.570;2023-05-10T12:41:07;13.63;;;6.85;;
75220;SDS011;63802;53.232;6.570;2023-05-10T12:43:35;14.00;;;7.20;;
75220;SDS011;63802;53.232;6.570;2023-05-10T12:46:07;13.02;;;6.90;;
75220;SDS011;63802;53.232;6.570;2023-05-10T12:48:33;12.13;;;5.75;;
75220;SDS011;63802;53.232;6.570;2023-05-10T12:51:00;16.67;;;6.70;;
75220;SDS011;63802;53.232;6.570;2023-05-10T12:53:26;11.85;;;5.45;;
75220;SDS011;63802;53.232;6.570;2023-05-10T12:55:51;12.65;;;6.05;;
75220;SDS011;63802;53.232;6.570;2023-05-10T12:58:17;12.15;;;5.68;;
75220;SDS011;63802;53.232;6.570;2023-05-10T13:00:42;13.52;;;6.03;;
75220;SDS011;63802;53.232;6.570;2023-05-10T13:03:08;11.30;;;6.13;;
75220;SDS011;63802;53.232;6.570;2023-05-10T13:05:34;13.27;;;6.70;;
75220;SDS011;63802;53.232;6.570;2023-05-10T13:08:00;12.90;;;6.13;;
75220;SDS011;63802;53.232;6.570;2023-05-10T13:10:26;10.98;;;5.93;;
75220;SDS011;63802;53.232;6.570;2023-05-10T13:12:53;10.13;;;5.03;;
75220;SDS011;63802;53.232;6.570;2023-05-10T13:15:19;11.40;;;5.38;;
75220;SDS011;63802;53.232;6.570;2023-05-10T13:17:44;10.90;;;5.22;;
75220;SDS011;63802;53.232;6.570;2023-05-10T13:20:10;11.63;;;5.68;;
75220;SDS011;63802;53.232;6.570;2023-05-10T13:22:36;12.02;;;5.38;;
75220;SDS011;63802;53.232;6.570;2023-05-10T13:25:01;12.43;;;5.20;;
75220;SDS011;63802;53.232;6.570;2023-05-10T13:27:27;9.57;;;5.68;;
75220;SDS011;63802;53.232;6.570;2023-05-10T13:29:53;8.98;;;4.38;;
75220;SDS011;63802;53.232;6.570;2023-05-10T13:32:19;11.35;;;4.93;;
75220;SDS011;63802;53.232;6.570;2023-05-10T13:34:46;9.02;;;4.25;;
75220;SDS011;63802;53.232;6.570;2023-05-10T13:37:11;9.30;;;4.88;;
75220;SDS011;63802;53.232;6.570;2023-05-10T13:39:36;9.65;;;4.95;;
75220;SDS011;63802;53.232;6.570;2023-05-10T13:42:02;11.10;;;5.30;;
75220;SDS011;63802;53.232;6.570;2023-05-10T13:44:28;9.63;;;4.70;;
75220;SDS011;63802;53.232;6.570;2023-05-10T13:46:54;9.55;;;4.68;;
75220;SDS011;63802;53.232;6.570;2023-05-10T13:49:20;10.50;;;4.72;;
75220;SDS011;63802;53.232;6.570;2023-05-10T13:51:47;8.38;;;4.47;;
75220;SDS011;63802;53.232;6.570;2023-05-10T13:54:13;11.23;;;4.80;;
75220;SDS011;63802;53.232;6.570;2023-05-10T13:56:39;9.82;;;4.72;;
75220;SDS011;63802;53.232;6.570;2023-05-10T13:59:07;10.50;;;4.80;;
75220;SDS011;63802;53.232;6.570;2023-05-10T14:01:33;11.63;;;5.15;;
75220;SDS011;63802;53.232;6.570;2023-05-10T14:03:59;10.57;;;5.10;;
75220;SDS011;63802;53.232;6.570;2023-05-10T14:06:25;10.45;;;5.15;;
75220;SDS011;63802;53.232;6.570;2023-05-10T14:08:51;10.52;;;4.80;;
75220;SDS011;63802;53.232;6.570;2023-05-10T14:11:18;10.15;;;5.25;;
75220;SDS011;63802;53.232;6.570;2023-05-10T14:13:46;11.35;;;4.45;;
75220;SDS011;63802;53.232;6.570;2023-05-10T14:16:11;10.60;;;5.53;;
75220;SDS011;63802;53.232;6.570;2023-05-10T14:18:37;12.23;;;5.40;;
75220;SDS011;63802;53.232;6.570;2023-05-10T14:21:03;14.27;;;5.30;;
75220;SDS011;63802;53.232;6.570;2023-05-10T14:23:29;11.75;;;5.68;;
75220;SDS011;63802;53.232;6.570;2023-05-10T14:25:55;11.52;;;5.57;;
75220;SDS011;63802;53.232;6.570;2023-05-10T14:28:20;10.20;;;5.22;;
75220;SDS011;63802;53.232;6.570;2023-05-10T14:30:47;10.63;;;5.10;;
75220;SDS011;63802;53.232;6.570;2023-05-10T14:33:13;12.80;;;5.47;;
75220;SDS011;63802;53.232;6.570;2023-05-10T14:35:38;10.43;;;5.22;;
75220;SDS011;63802;53.232;6.570;2023-05-10T14:38:04;12.35;;;5.13;;
75220;SDS011;63802;53.232;6.570;2023-05-10T14:40:31;9.00;;;4.57;;
75220;SDS011;63802;53.232;6.570;2023-05-10T14:42:57;9.63;;;4.85;;
75220;SDS011;63802;53.232;6.570;2023-05-10T14:45:22;12.43;;;5.43;;
75220;SDS011;63802;53.232;6.570;2023-05-10T14:47:48;12.40;;;6.15;;
75220;SDS011;63802;53.232;6.570;2023-05-10T14:50:15;12.70;;;5.90;;
75220;SDS011;63802;53.232;6.570;2023-05-10T14:52:41;10.15;;;5.63;;
75220;SDS011;63802;53.232;6.570;2023-05-10T14:55:07;9.93;;;5.45;;
75220;SDS011;63802;53.232;6.570;2023-05-10T14:57:33;13.65;;;5.93;;
75220;SDS011;63802;53.232;6.570;2023-05-10T14:59:59;12.27;;;6.55;;
75220;SDS011;63802;53.232;6.570;2023-05-10T15:02:25;13.68;;;6.50;;
75220;SDS011;63802;53.232;6.570;2023-05-10T15:04:51;12.38;;;5.80;;
75220;SDS011;63802;53.232;6.570;2023-05-10T15:07:16;10.52;;;5.80;;
75220;SDS011;63802;53.232;6.570;2023-05-10T15:09:43;14.50;;;6.63;;
75220;SDS011;63802;53.232;6.570;2023-05-10T15:12:09;12.07;;;5.88;;
75220;SDS011;63802;53.232;6.570;2023-05-10T15:14:34;12.52;;;6.47;;
75220;SDS011;63802;53.232;6.570;2023-05-10T15:17:01;12.13;;;6.57;;
75220;SDS011;63802;53.232;6.570;2023-05-10T15:19:27;12.68;;;5.72;;
75220;SDS011;63802;53.232;6.570;2023-05-10T15:21:54;10.43;;;5.47;;
75220;SDS011;63802;53.232;6.570;2023-05-10T15:24:20;12.65;;;5.95;;
75220;SDS011;63802;53.232;6.570;2023-05-10T15:26:46;13.30;;;6.40;;
75220;SDS011;63802;53.232;6.570;2023-05-10T15:29:11;14.20;;;6.22;;
75220;SDS011;63802;53.232;6.570;2023-05-10T15:31:37;13.95;;;6.50;;